createdAt,value
2018-02-14T00:01:40.017Z,21.45
2018-02-14T00:04:07.512Z,16.48
2018-02-14T00:06:34.800Z,17.50
2018-02-14T00:09:02.294Z,16.15
2018-02-14T00:11:29.825Z,17.98
2018-02-14T00:13:57.305Z,12.57
2018-02-14T00:16:24.830Z,18.30
2018-02-14T00:18:53.342Z,18.42
2018-02-14T00:21:20.843Z,18.10
2018-02-14T00:23:48.337Z,17.37
2018-02-14T00:26:15.993Z,20.25
2018-02-14T00:28:43.479Z,20.10
2018-02-14T00:31:10.991Z,18.67
2018-02-14T00:33:38.481Z,16.55
2018-02-14T00:36:05.965Z,14.70
2018-02-14T00:38:33.487Z,19.35
2018-02-14T00:41:00.807Z,23.75
2018-02-14T00:43:28.329Z,18.05
2018-02-14T00:45:55.830Z,18.37
2018-02-14T00:48:23.325Z,17.25
2018-02-14T00:50:50.853Z,20.40
2018-02-14T00:53:18.350Z,16.67
2018-02-14T00:55:45.863Z,20.52
2018-02-14T00:58:13.477Z,17.77
2018-02-14T01:00:40.977Z,17.08
2018-02-14T01:03:08.474Z,17.98
2018-02-14T01:05:35.762Z,16.33
2018-02-14T01:08:03.279Z,22.55
2018-02-14T01:10:30.778Z,17.05
2018-02-14T01:12:58.475Z,14.82
2018-02-14T01:15:25.957Z,17.87
2018-02-14T01:17:53.458Z,21.40
2018-02-14T01:20:26.605Z,15.57
2018-02-14T01:22:54.104Z,18.70
2018-02-14T01:25:21.600Z,22.52
2018-02-14T01:27:49.089Z,17.37
2018-02-14T01:30:16.585Z,21.08
2018-02-14T01:32:44.098Z,18.77
2018-02-14T01:35:11.615Z,19.62
2018-02-14T01:37:39.128Z,24.80
2018-02-14T01:40:07.562Z,14.80
2018-02-14T01:42:35.054Z,20.95
2018-02-14T01:45:03.574Z,20.85
2018-02-14T01:47:31.087Z,16.45
2018-02-14T01:50:00.453Z,16.65
2018-02-14T01:52:27.959Z,20.35
2018-02-14T01:54:57.422Z,24.05
2018-02-14T01:57:24.920Z,21.70
2018-02-14T01:59:52.438Z,17.17
2018-02-14T02:02:19.941Z,19.30
2018-02-14T02:04:49.414Z,15.88
2018-02-14T02:07:16.996Z,17.37
2018-02-14T02:09:44.784Z,17.67
2018-02-14T02:12:12.273Z,14.07
2018-02-14T02:14:39.778Z,14.52
2018-02-14T02:17:07.267Z,14.25
2018-02-14T02:19:34.766Z,15.80
2018-02-14T02:22:03.177Z,14.35
2018-02-14T02:24:30.663Z,14.00
2018-02-14T02:26:58.171Z,13.98
2018-02-14T02:29:25.659Z,11.40
2018-02-14T02:31:53.152Z,14.52
2018-02-14T02:34:20.642Z,15.27
2018-02-14T02:36:48.132Z,14.35
2018-02-14T02:39:21.191Z,14.75
2018-02-14T02:41:48.683Z,15.07
2018-02-14T02:44:16.166Z,16.33
2018-02-14T02:46:43.656Z,13.82
2018-02-14T02:49:11.142Z,16.40
2018-02-14T02:51:38.670Z,13.23
2018-02-14T02:54:06.172Z,21.87
2018-02-14T02:56:33.649Z,13.65
2018-02-14T02:59:01.153Z,20.25
2018-02-14T03:01:29.574Z,16.05
2018-02-14T03:03:57.081Z,14.48
2018-02-14T03:06:24.573Z,13.88
2018-02-14T03:08:52.073Z,14.20
2018-02-14T03:11:19.689Z,17.58
2018-02-14T03:13:47.173Z,13.65
2018-02-14T03:16:14.704Z,17.50
2018-02-14T03:18:42.928Z,15.30
2018-02-14T03:21:10.850Z,26.45
2018-02-14T03:23:38.341Z,17.77
2018-02-14T03:26:05.833Z,16.30
2018-02-14T03:28:34.793Z,21.62
2018-02-14T03:31:03.229Z,17.55
2018-02-14T03:33:30.750Z,13.43
2018-02-14T03:35:58.280Z,15.82
2018-02-14T03:38:25.845Z,16.55
2018-02-14T03:40:53.343Z,15.68
2018-02-14T03:43:20.638Z,12.88
2018-02-14T03:45:48.037Z,11.93
2018-02-14T03:48:15.564Z,12.00
2018-02-14T03:50:43.085Z,11.30
2018-02-14T03:53:10.588Z,11.00
2018-02-14T03:55:39.282Z,13.57
2018-02-14T03:58:06.581Z,12.43
2018-02-14T04:00:35.022Z,10.90
2018-02-14T04:03:02.536Z,15.05
2018-02-14T04:05:30.041Z,11.60
2018-02-14T04:07:57.537Z,9.88
2018-02-14T04:10:25.028Z,10.35
2018-02-14T04:12:52.529Z,10.88
2018-02-14T04:15:20.038Z,7.30
2018-02-14T04:17:47.562Z,10.48
2018-02-14T04:20:15.066Z,9.73
2018-02-14T04:22:42.544Z,9.68
2018-02-14T04:25:09.851Z,10.20
2018-02-14T04:27:37.364Z,9.07
2018-02-14T04:30:04.680Z,14.00
2018-02-14T04:32:32.902Z,8.77
2018-02-14T04:35:00.417Z,8.65
2018-02-14T04:37:27.926Z,10.20
2018-02-14T04:39:55.401Z,8.90
2018-02-14T04:42:22.922Z,5.82
2018-02-14T04:44:50.432Z,10.30
2018-02-14T04:47:17.962Z,8.10
2018-02-14T04:49:45.493Z,7.50
2018-02-14T04:52:13.142Z,6.72
2018-02-14T04:54:40.645Z,7.45
2018-02-14T04:57:08.138Z,7.45
2018-02-14T04:59:35.618Z,7.72
2018-02-14T05:02:03.136Z,8.93
2018-02-14T05:04:30.614Z,5.18
2018-02-14T05:06:59.122Z,6.20
2018-02-14T05:09:27.059Z,9.93
2018-02-14T05:11:54.537Z,6.20
2018-02-14T05:14:22.035Z,6.12
2018-02-14T05:16:49.517Z,6.25
2018-02-14T05:19:17.006Z,8.63
2018-02-14T05:21:45.475Z,5.87
2018-02-14T05:24:12.962Z,4.10
2018-02-14T05:26:40.446Z,9.63
2018-02-14T05:29:07.933Z,8.13
2018-02-14T05:31:35.445Z,6.28
2018-02-14T05:34:02.949Z,5.03
2018-02-14T05:36:30.473Z,4.68
2018-02-14T05:38:57.980Z,11.25
2018-02-14T05:41:25.461Z,3.85
2018-02-14T05:43:52.945Z,4.03
2018-02-14T05:46:20.442Z,3.53
2018-02-14T05:48:47.924Z,5.90
2018-02-14T05:51:15.408Z,4.25
2018-02-14T05:53:44.833Z,6.43
2018-02-14T05:56:13.262Z,7.70
2018-02-14T05:58:40.810Z,3.50
2018-02-14T06:01:08.293Z,3.15
2018-02-14T06:03:35.790Z,10.90
2018-02-14T06:06:03.276Z,5.97
2018-02-14T06:08:30.755Z,3.42
2018-02-14T06:10:58.270Z,2.92
2018-02-14T06:13:25.757Z,10.23
2018-02-14T06:15:53.232Z,3.00
2018-02-14T06:18:20.807Z,4.62
2018-02-14T06:20:48.314Z,4.25
2018-02-14T06:23:15.799Z,3.25
2018-02-14T06:25:43.285Z,3.50
2018-02-14T06:28:10.807Z,6.30
2018-02-14T06:30:38.300Z,2.75
2018-02-14T06:33:05.823Z,3.03
2018-02-14T06:35:33.316Z,3.50
2018-02-14T06:38:00.978Z,3.47
2018-02-14T06:40:28.805Z,6.68
2018-02-14T06:42:56.279Z,2.95
2018-02-14T06:45:23.786Z,3.72
2018-02-14T06:47:51.269Z,3.30
2018-02-14T06:50:18.748Z,3.12
2018-02-14T06:52:46.228Z,3.37
2018-02-14T06:55:13.753Z,2.70
2018-02-14T06:57:41.370Z,3.12
2018-02-14T07:00:09.809Z,5.28
2018-02-14T07:02:37.294Z,5.00
2018-02-14T07:05:04.778Z,4.95
2018-02-14T07:07:32.276Z,5.60
2018-02-14T07:09:59.776Z,2.80
2018-02-14T07:12:27.283Z,7.40
2018-02-14T07:14:54.770Z,6.80
2018-02-14T07:17:22.241Z,2.55
2018-02-14T07:19:49.721Z,6.22
2018-02-14T07:22:17.201Z,7.85
2018-02-14T07:24:44.785Z,2.33
2018-02-14T07:27:12.281Z,3.65
2018-02-14T07:29:39.573Z,3.62
2018-02-14T07:32:07.055Z,6.37
2018-02-14T07:34:34.550Z,6.20
2018-02-14T07:37:02.037Z,4.62
2018-02-14T07:39:29.541Z,6.50
2018-02-14T07:41:57.020Z,5.78
2018-02-14T07:44:24.501Z,3.85
2018-02-14T07:46:52.002Z,5.50
2018-02-14T07:49:19.485Z,5.30
2018-02-14T07:51:46.989Z,3.85
2018-02-14T07:54:14.482Z,4.35
2018-02-14T07:56:41.962Z,5.43
2018-02-14T07:59:09.490Z,7.47
2018-02-14T08:01:36.977Z,5.50
2018-02-14T08:04:04.461Z,5.78
2018-02-14T08:06:31.944Z,5.43
2018-02-14T08:08:59.474Z,6.40
2018-02-14T08:11:26.977Z,6.18
2018-02-14T08:13:54.458Z,9.15
2018-02-14T08:16:21.937Z,6.93
2018-02-14T08:18:49.427Z,6.20
2018-02-14T08:21:16.936Z,5.85
2018-02-14T08:23:44.436Z,6.40
2018-02-14T08:26:11.916Z,5.22
2018-02-14T08:28:39.405Z,4.78
2018-02-14T08:31:06.884Z,9.73
2018-02-14T08:33:34.365Z,5.55
2018-02-14T08:36:01.858Z,6.50
2018-02-14T08:38:29.358Z,4.72
2018-02-14T08:40:56.842Z,6.47
2018-02-14T08:43:24.934Z,3.60
2018-02-14T08:45:52.421Z,6.45
2018-02-14T08:48:19.906Z,5.87
2018-02-14T08:50:47.421Z,4.12
2018-02-14T08:53:15.858Z,2.97
2018-02-14T08:55:45.354Z,10.27
2018-02-14T08:58:12.847Z,4.18
2018-02-14T09:00:40.341Z,6.80
2018-02-14T09:03:07.826Z,4.28
2018-02-14T09:05:35.311Z,3.42
2018-02-14T09:08:02.819Z,4.32
2018-02-14T09:10:30.129Z,3.15
2018-02-14T09:12:57.611Z,2.97
2018-02-14T09:15:25.127Z,2.97
2018-02-14T09:17:52.601Z,3.55
2018-02-14T09:20:20.101Z,3.20
2018-02-14T09:22:47.585Z,4.12
2018-02-14T09:25:15.091Z,3.65
2018-02-14T09:27:42.617Z,5.53
2018-02-14T09:30:10.109Z,3.20
2018-02-14T09:32:37.589Z,7.90
2018-02-14T09:35:05.079Z,5.30
2018-02-14T09:37:32.574Z,2.62
2018-02-14T09:40:00.086Z,5.90
2018-02-14T09:42:27.568Z,2.53
2018-02-14T09:44:55.050Z,2.72
2018-02-14T09:47:22.528Z,3.75
2018-02-14T09:49:50.393Z,3.28
2018-02-14T09:52:17.897Z,2.08
2018-02-14T09:54:45.399Z,2.25
2018-02-14T09:57:12.889Z,8.90
2018-02-14T09:59:40.843Z,2.42
2018-02-14T10:02:08.323Z,2.58
2018-02-14T10:04:35.830Z,2.92
2018-02-14T10:07:03.326Z,3.55
2018-02-14T10:09:30.804Z,4.90
2018-02-14T10:11:58.294Z,2.67
2018-02-14T10:14:25.778Z,3.15
2018-02-14T10:16:53.257Z,2.85
2018-02-14T10:19:20.758Z,2.60
2018-02-14T10:21:48.256Z,3.90
2018-02-14T10:24:15.757Z,4.10
2018-02-14T10:26:43.238Z,2.17
2018-02-14T10:29:11.209Z,4.97
2018-02-14T10:31:38.687Z,2.40
2018-02-14T10:34:06.186Z,2.10
2018-02-14T10:36:33.685Z,2.45
2018-02-14T10:39:01.169Z,2.30
2018-02-14T10:41:28.669Z,2.10
2018-02-14T10:43:56.149Z,3.15
2018-02-14T10:46:23.633Z,2.83
2018-02-14T10:48:51.118Z,2.92
2018-02-14T10:51:18.610Z,2.65
2018-02-14T10:53:46.109Z,3.05
2018-02-14T10:56:13.584Z,2.00
2018-02-14T10:58:42.104Z,2.60
2018-02-14T11:01:15.119Z,2.25
2018-02-14T11:03:42.429Z,2.83
2018-02-14T11:06:12.627Z,2.37
2018-02-14T11:08:40.104Z,1.80
2018-02-14T11:11:07.594Z,1.50
2018-02-14T11:13:35.075Z,2.00
2018-02-14T11:16:02.575Z,2.47
2018-02-14T11:18:30.072Z,2.20
2018-02-14T11:20:57.575Z,4.93
2018-02-14T11:23:25.075Z,2.00
2018-02-14T11:25:52.613Z,1.87
2018-02-14T11:28:20.095Z,6.07
2018-02-14T11:30:47.581Z,1.80
2018-02-14T11:33:15.080Z,2.97
2018-02-14T11:35:42.569Z,1.70
2018-02-14T11:38:10.078Z,4.50
2018-02-14T11:40:38.498Z,1.80
2018-02-14T11:43:06.007Z,2.10
2018-02-14T11:45:33.485Z,1.85
2018-02-14T11:48:00.962Z,1.70
2018-02-14T11:50:28.457Z,1.60
2018-02-14T11:52:55.951Z,1.70
2018-02-14T11:55:23.438Z,2.15
2018-02-14T11:57:50.929Z,1.70
2018-02-14T12:00:18.225Z,2.97
2018-02-14T12:02:45.700Z,2.40
2018-02-14T12:05:13.181Z,1.60
2018-02-14T12:07:42.612Z,1.95
2018-02-14T12:10:10.090Z,1.60
2018-02-14T12:12:37.566Z,2.42
2018-02-14T12:15:05.054Z,3.33
2018-02-14T12:17:32.537Z,2.08
2018-02-14T12:20:00.011Z,2.40
2018-02-14T12:22:27.557Z,2.28
2018-02-14T12:24:55.062Z,2.30
2018-02-14T12:27:22.545Z,4.00
2018-02-14T12:29:50.028Z,2.75
2018-02-14T12:32:17.510Z,2.17
2018-02-14T12:34:45.004Z,2.58
2018-02-14T12:37:12.489Z,6.87
2018-02-14T12:39:39.966Z,2.33
2018-02-14T12:42:08.462Z,2.62
2018-02-14T12:44:35.939Z,2.80
2018-02-14T12:47:04.366Z,3.95
2018-02-14T12:49:31.850Z,2.37
2018-02-14T12:51:59.338Z,4.22
2018-02-14T12:54:26.826Z,5.18
2018-02-14T12:56:54.306Z,4.57
2018-02-14T12:59:21.818Z,4.30
2018-02-14T13:01:49.017Z,4.67
2018-02-14T13:04:16.209Z,8.33
2018-02-14T13:06:43.508Z,6.50
2018-02-14T13:09:10.772Z,5.90
2018-02-14T13:11:38.914Z,3.90
2018-02-14T13:14:06.121Z,3.33
2018-02-14T13:16:33.350Z,4.93
2018-02-14T13:19:00.569Z,7.83
2018-02-14T13:21:27.765Z,5.03
2018-02-14T13:23:55.289Z,4.15
2018-02-14T13:26:22.777Z,10.23
2018-02-14T13:28:49.982Z,8.60
2018-02-14T13:31:17.179Z,6.00
2018-02-14T13:33:44.400Z,4.70
2018-02-14T13:36:11.605Z,5.10
2018-02-14T13:38:38.801Z,3.43
2018-02-14T13:41:05.993Z,8.57
2018-02-14T13:43:33.191Z,3.00
2018-02-14T13:46:00.402Z,2.93
2018-02-14T13:48:27.610Z,4.00
2018-02-14T13:50:54.895Z,15.47
2018-02-14T13:53:22.849Z,12.33
2018-02-14T13:55:50.045Z,6.60
2018-02-14T13:58:18.956Z,4.57
2018-02-14T14:00:46.158Z,7.50
2018-02-14T14:03:13.357Z,6.23
2018-02-14T14:05:40.553Z,5.87
2018-02-14T14:08:07.777Z,8.73
2018-02-14T14:10:34.977Z,5.77
2018-02-14T14:13:02.168Z,3.87
2018-02-14T14:15:29.365Z,9.17
2018-02-14T14:17:56.563Z,4.73
2018-02-14T14:20:25.483Z,5.00
2018-02-14T14:22:52.678Z,3.07
2018-02-14T14:25:19.898Z,3.73
2018-02-14T14:27:47.090Z,5.90
2018-02-14T14:30:14.285Z,3.03
2018-02-14T14:32:42.429Z,3.93
2018-02-14T14:35:09.634Z,5.30
2018-02-14T14:37:37.109Z,5.77
2018-02-14T14:40:04.320Z,3.70
2018-02-14T14:42:31.540Z,6.13
2018-02-14T14:44:58.761Z,4.27
2018-02-14T14:47:25.958Z,4.20
2018-02-14T14:49:53.364Z,3.50
2018-02-14T14:52:20.557Z,8.00
2018-02-14T14:54:47.778Z,4.10
2018-02-14T14:57:15.009Z,7.13
2018-02-14T14:59:42.373Z,4.50
2018-02-14T15:02:09.569Z,5.70
2018-02-14T15:04:36.791Z,4.77
2018-02-14T15:07:03.986Z,5.40
2018-02-14T15:09:32.148Z,6.77
2018-02-14T15:11:59.351Z,8.90
2018-02-14T15:14:26.551Z,5.60
2018-02-14T15:16:53.770Z,8.53
2018-02-14T15:19:20.963Z,8.40
2018-02-14T15:21:49.123Z,6.43
2018-02-14T15:24:16.326Z,8.47
2018-02-14T15:26:49.768Z,6.77
2018-02-14T15:29:18.958Z,11.00
2018-02-14T15:31:46.174Z,8.10
2018-02-14T15:34:13.365Z,9.70
2018-02-14T15:36:43.398Z,8.77
2018-02-14T15:39:14.890Z,10.10
2018-02-14T15:41:42.111Z,6.20
2018-02-14T15:44:11.002Z,6.93
2018-02-14T15:46:38.197Z,7.70
2018-02-14T15:49:05.400Z,8.80
2018-02-14T15:51:32.607Z,8.70
2018-02-14T15:54:00.126Z,8.73
2018-02-14T15:56:27.615Z,8.93
2018-02-14T15:58:55.126Z,8.35
2018-02-14T16:01:22.614Z,9.82
2018-02-14T16:03:50.110Z,12.02
2018-02-14T16:06:19.604Z,7.30
2018-02-14T16:08:47.086Z,9.35
2018-02-14T16:11:15.529Z,7.65
2018-02-14T16:13:43.017Z,6.95
2018-02-14T16:16:10.508Z,8.93
2018-02-14T16:18:38.006Z,6.68
2018-02-14T16:21:05.502Z,15.15
2018-02-14T16:23:33.973Z,8.45
2018-02-14T16:26:01.278Z,8.70
2018-02-14T16:28:28.781Z,7.95
2018-02-14T16:30:56.299Z,8.10
2018-02-14T16:33:23.791Z,8.60
2018-02-14T16:35:54.040Z,8.88
2018-02-14T16:38:23.389Z,7.72
2018-02-14T16:40:50.873Z,8.40
2018-02-14T16:43:21.389Z,6.87
2018-02-14T16:45:48.883Z,8.98
2018-02-14T16:48:16.367Z,9.27
2018-02-14T16:50:43.854Z,7.15
2018-02-14T16:53:11.342Z,9.38
2018-02-14T16:55:38.853Z,9.05
2018-02-14T16:58:06.359Z,15.27
2018-02-14T17:00:33.949Z,7.75
2018-02-14T17:03:01.451Z,10.15
2018-02-14T17:05:28.971Z,6.78
2018-02-14T17:07:56.709Z,6.87
2018-02-14T17:10:24.209Z,20.08
2018-02-14T17:12:51.701Z,19.80
2018-02-14T17:15:19.448Z,12.48
2018-02-14T17:17:46.958Z,9.77
2018-02-14T17:20:15.209Z,18.95
2018-02-14T17:22:42.729Z,8.40
2018-02-14T17:25:10.502Z,8.27
2018-02-14T17:27:38.050Z,8.13
2018-02-14T17:30:05.595Z,8.45
2018-02-14T17:32:33.225Z,7.37
2018-02-14T17:35:00.710Z,9.07
2018-02-14T17:37:28.200Z,16.17
2018-02-14T17:39:55.799Z,9.43
2018-02-14T17:42:23.299Z,8.38
2018-02-14T17:44:50.781Z,10.45
2018-02-14T17:47:18.262Z,15.30
2018-02-14T17:49:45.757Z,13.52
2018-02-14T17:52:13.250Z,11.50
2018-02-14T17:54:40.754Z,15.52
2018-02-14T17:57:08.233Z,13.48
2018-02-14T17:59:35.742Z,10.52
2018-02-14T18:02:03.242Z,15.30
2018-02-14T18:04:30.730Z,11.98
2018-02-14T18:06:58.250Z,11.10
2018-02-14T18:09:25.742Z,12.65
2018-02-14T18:11:53.253Z,13.45
2018-02-14T18:14:20.762Z,17.95
2018-02-14T18:16:48.245Z,16.37
2018-02-14T18:19:15.757Z,13.80
2018-02-14T18:21:43.242Z,16.33
2018-02-14T18:24:10.722Z,13.88
2018-02-14T18:26:38.206Z,13.62
2018-02-14T18:29:05.710Z,15.07
2018-02-14T18:31:34.042Z,16.02
2018-02-14T18:34:02.539Z,12.65
2018-02-14T18:36:30.048Z,13.90
2018-02-14T18:38:57.549Z,15.55
2018-02-14T18:41:25.054Z,17.05
2018-02-14T18:43:52.574Z,15.82
2018-02-14T18:46:19.828Z,18.77
2018-02-14T18:48:47.319Z,34.08
2018-02-14T18:51:14.814Z,26.87
2018-02-14T18:53:42.664Z,23.95
2018-02-14T18:56:10.174Z,20.02
2018-02-14T18:58:37.678Z,15.23
2018-02-14T19:01:05.192Z,18.17
2018-02-14T19:03:32.709Z,14.30
2018-02-14T19:06:00.201Z,15.25
2018-02-14T19:08:27.713Z,17.70
2018-02-14T19:10:55.218Z,21.90
2018-02-14T19:13:23.661Z,15.45
2018-02-14T19:15:51.150Z,16.00
2018-02-14T19:18:18.639Z,24.65
2018-02-14T19:20:46.172Z,15.50
2018-02-14T19:23:13.667Z,14.98
2018-02-14T19:25:41.163Z,29.00
2018-02-14T19:28:08.657Z,16.02
2018-02-14T19:30:36.156Z,46.85
2018-02-14T19:33:03.677Z,19.40
2018-02-14T19:35:31.179Z,14.35
2018-02-14T19:37:58.670Z,15.50
2018-02-14T19:40:26.158Z,21.73
2018-02-14T19:42:53.663Z,18.73
2018-02-14T19:45:21.182Z,15.52
2018-02-14T19:47:48.752Z,19.17
2018-02-14T19:50:16.258Z,17.23
2018-02-14T19:52:43.766Z,16.42
2018-02-14T19:55:11.257Z,13.45
2018-02-14T19:57:38.768Z,15.50
2018-02-14T20:00:06.259Z,17.23
2018-02-14T20:02:33.754Z,18.65
2018-02-14T20:05:01.259Z,19.40
2018-02-14T20:07:28.753Z,16.75
2018-02-14T20:09:56.299Z,15.57
2018-02-14T20:12:23.796Z,22.37
2018-02-14T20:14:51.291Z,12.27
2018-02-14T20:17:18.850Z,16.37
2018-02-14T20:19:46.358Z,15.15
2018-02-14T20:22:18.729Z,20.98
2018-02-14T20:24:46.225Z,18.52
2018-02-14T20:27:13.729Z,12.98
2018-02-14T20:29:41.244Z,12.07
2018-02-14T20:32:08.740Z,12.73
2018-02-14T20:34:36.254Z,10.82
2018-02-14T20:37:03.784Z,13.90
2018-02-14T20:39:31.265Z,13.30
2018-02-14T20:41:58.761Z,12.10
2018-02-14T20:44:26.249Z,16.95
2018-02-14T20:46:53.761Z,12.20
2018-02-14T20:49:21.256Z,19.70
2018-02-14T20:51:48.747Z,19.48
2018-02-14T20:54:16.237Z,14.05
2018-02-14T20:56:43.782Z,12.88
2018-02-14T20:59:11.314Z,18.33
2018-02-14T21:01:38.817Z,16.08
2018-02-14T21:04:06.310Z,12.90
2018-02-14T21:06:33.820Z,16.73
2018-02-14T21:09:01.313Z,12.43
2018-02-14T21:11:28.819Z,17.10
2018-02-14T21:13:56.313Z,16.65
2018-02-14T21:16:23.802Z,12.77
2018-02-14T21:18:51.304Z,13.62
2018-02-14T21:21:18.817Z,12.60
2018-02-14T21:23:46.341Z,15.35
2018-02-14T21:26:13.830Z,15.88
2018-02-14T21:28:41.326Z,18.65
2018-02-14T21:31:08.817Z,14.45
2018-02-14T21:33:36.301Z,17.85
2018-02-14T21:36:03.867Z,13.68
2018-02-14T21:38:31.455Z,13.75
2018-02-14T21:40:58.962Z,16.48
2018-02-14T21:43:28.394Z,13.80
2018-02-14T21:45:55.885Z,17.27
2018-02-14T21:48:23.409Z,17.10
2018-02-14T21:50:50.892Z,13.35
2018-02-14T21:53:18.385Z,17.25
2018-02-14T21:55:45.883Z,14.65
2018-02-14T21:58:13.384Z,15.88
2018-02-14T22:00:40.901Z,13.20
2018-02-14T22:03:08.395Z,16.25
2018-02-14T22:05:35.882Z,12.80
2018-02-14T22:08:03.367Z,15.32
2018-02-14T22:10:30.862Z,15.90
2018-02-14T22:12:58.386Z,13.10
2018-02-14T22:15:25.888Z,13.68
2018-02-14T22:17:53.422Z,11.07
2018-02-14T22:20:20.911Z,14.27
2018-02-14T22:22:48.388Z,13.15
2018-02-14T22:25:15.898Z,12.37
2018-02-14T22:27:43.380Z,15.27
2018-02-14T22:30:10.882Z,11.00
2018-02-14T22:32:38.375Z,17.23
2018-02-14T22:35:05.851Z,13.40
2018-02-14T22:37:33.353Z,12.13
2018-02-14T22:40:00.834Z,13.57
2018-02-14T22:42:28.325Z,12.65
2018-02-14T22:44:55.816Z,17.10
2018-02-14T22:47:23.298Z,14.65
2018-02-14T22:49:50.833Z,12.10
2018-02-14T22:52:18.317Z,14.55
2018-02-14T22:54:45.809Z,12.27
2018-02-14T22:57:13.298Z,12.88
2018-02-14T22:59:40.778Z,12.65
2018-02-14T23:02:08.286Z,16.37
2018-02-14T23:04:36.422Z,13.48
2018-02-14T23:07:03.901Z,12.80
2018-02-14T23:09:31.396Z,13.98
2018-02-14T23:11:58.886Z,14.77
2018-02-14T23:14:26.392Z,14.50
2018-02-14T23:16:53.890Z,14.05
2018-02-14T23:19:21.373Z,14.57
2018-02-14T23:21:48.871Z,12.68
2018-02-14T23:24:16.358Z,12.73
2018-02-14T23:26:43.869Z,12.75
2018-02-14T23:29:11.363Z,13.40
2018-02-14T23:31:38.850Z,16.92
2018-02-14T23:34:07.499Z,22.75
2018-02-14T23:36:34.989Z,15.70
2018-02-14T23:39:03.213Z,13.48
2018-02-14T23:41:30.714Z,19.55
2018-02-14T23:43:58.211Z,19.08
2018-02-14T23:46:25.692Z,13.70
2018-02-14T23:48:53.179Z,14.80
2018-02-14T23:51:20.666Z,14.10
2018-02-14T23:53:48.165Z,14.05
2018-02-14T23:56:15.649Z,15.50
2018-02-14T23:58:43.137Z,11.20
